Time;durP1;ratioP1;P1;durP2;ratioP2;P2;SDS_P1;SDS_P2;PMS_P1;PMS_P2;Temp;Humidity;BMP_temperature;BMP_pressure;BME280_temperature;BME280_humidity;BME280_pressure;Samples;Min_cycle;Max_cycle;Signal;HPM_P1;HPM_P2
2024/03/12 00:00:15;;;;;;;2.35;1.33;;;19.30;57.00;;;;;;5021488;28;20107;-50
2024/03/12 00:02:44;;;;;;;2.25;1.33;;;19.30;57.00;;;;;;5031939;28;20121;-50
2024/03/12 00:05:18;;;;;;;3.00;1.45;;;19.40;57.10;;;;;;5038693;28;20025;-51
2024/03/12 00:07:45;;;;;;;1.90;1.48;;;19.30;57.00;;;;;;5039028;28;20079;-50
2024/03/12 00:10:15;;;;;;;2.00;1.23;;;19.40;57.10;;;;;;5037334;28;20044;-51
2024/03/12 00:12:48;;;;;;;2.38;1.42;;;19.30;57.00;;;;;;5034933;28;20064;-51
2024/03/12 00:15:18;;;;;;;2.80;1.23;;;19.30;57.00;;;;;;5034561;28;20029;-51
2024/03/12 00:17:44;;;;;;;1.73;1.10;;;19.30;57.00;;;;;;5036577;28;20048;-49
2024/03/12 00:20:17;;;;;;;2.92;1.13;;;19.30;57.00;;;;;;5033601;28;20036;-51
2024/03/12 00:22:46;;;;;;;1.60;1.30;;;19.30;57.00;;;;;;5038272;28;20128;-49
2024/03/12 00:25:13;;;;;;;1.40;0.90;;;19.40;57.10;;;;;;5036696;28;20025;-49
2024/03/12 00:27:40;;;;;;;4.80;1.00;;;19.30;57.00;;;;;;5030083;28;20618;-52
2024/03/12 00:30:09;;;;;;;1.30;1.02;;;19.30;57.00;;;;;;5032302;28;20041;-49
2024/03/12 00:32:36;;;;;;;2.42;1.30;;;19.40;57.00;;;;;;5026881;28;20970;-52
2024/03/12 00:35:03;;;;;;;1.88;1.05;;;19.30;56.90;;;;;;5020052;28;20049;-50
2024/03/12 00:37:28;;;;;;;1.77;1.50;;;19.40;57.00;;;;;;5006275;28;20036;-51
2024/03/12 00:39:55;;;;;;;2.10;1.40;;;19.40;57.00;;;;;;5028477;28;20029;-50
2024/03/12 00:42:22;;;;;;;2.35;1.50;;;19.30;56.90;;;;;;5019464;28;20633;-52
2024/03/12 00:44:48;;;;;;;1.58;1.10;;;19.30;56.90;;;;;;5038186;28;20115;-52
2024/03/12 00:47:14;;;;;;;2.30;1.20;;;19.40;57.00;;;;;;5034136;28;20025;-51
2024/03/12 00:49:40;;;;;;;2.35;1.70;;;19.30;57.00;;;;;;5036884;28;20053;-53
2024/03/12 00:52:05;;;;;;;2.08;1.45;;;19.30;57.00;;;;;;5030803;28;20034;-50
2024/03/12 00:54:35;;;;;;;1.85;1.33;;;19.30;56.90;;;;;;5031681;28;20040;-52
2024/03/12 00:57:02;;;;;;;1.77;1.20;;;19.30;57.00;;;;;;5032823;28;20084;-48
2024/03/12 00:59:29;;;;;;;1.75;1.40;;;19.40;57.00;;;;;;5032716;28;20029;-56
2024/03/12 01:01:54;;;;;;;1.80;1.25;;;19.30;56.90;;;;;;5033043;28;20037;-51
2024/03/12 01:04:21;;;;;;;1.33;1.10;;;19.30;57.00;;;;;;5031930;28;20076;-54
2024/03/12 01:06:49;;;;;;;2.20;1.30;;;19.30;57.00;;;;;;5035399;28;20029;-50
2024/03/12 01:09:18;;;;;;;1.70;1.33;;;19.30;57.00;;;;;;5033926;28;20037;-51
2024/03/12 01:11:44;;;;;;;1.25;1.00;;;19.30;57.10;;;;;;5035786;28;20462;-48
2024/03/12 01:14:09;;;;;;;1.50;1.10;;;19.20;57.10;;;;;;5034717;28;20043;-48
2024/03/12 01:16:35;;;;;;;1.45;1.08;;;19.20;57.20;;;;;;5030416;28;20628;-47
2024/03/12 01:19:01;;;;;;;1.45;1.20;;;19.20;57.20;;;;;;5037057;28;20037;-50
2024/03/12 01:21:27;;;;;;;4.03;1.25;;;19.20;57.20;;;;;;5033324;28;20451;-49
2024/03/12 01:23:54;;;;;;;1.50;1.20;;;19.20;57.30;;;;;;5032300;28;20119;-53
2024/03/12 01:26:20;;;;;;;1.30;1.20;;;19.10;57.30;;;;;;5036415;28;20037;-50
2024/03/12 01:28:45;;;;;;;1.80;1.40;;;19.10;57.30;;;;;;5033595;28;20030;-48
2024/03/12 01:31:11;;;;;;;1.55;1.10;;;19.10;57.40;;;;;;5029144;28;20104;-50
2024/03/12 01:33:36;;;;;;;1.65;1.20;;;19.00;57.40;;;;;;5031885;28;20410;-54
2024/03/12 01:36:05;;;;;;;1.65;1.10;;;19.00;57.40;;;;;;5034522;28;20047;-48
2024/03/12 01:38:34;;;;;;;1.40;1.27;;;19.00;57.50;;;;;;5030553;28;20044;-56
2024/03/12 01:41:05;;;;;;;1.50;1.20;;;19.00;57.50;;;;;;5038293;28;20040;-49
2024/03/12 01:43:30;;;;;;;1.95;1.17;;;19.00;57.50;;;;;;5036729;28;20033;-53
2024/03/12 01:45:56;;;;;;;1.55;1.23;;;19.00;57.50;;;;;;5033627;28;20590;-49
2024/03/12 01:48:22;;;;;;;1.60;1.40;;;19.00;57.50;;;;;;5031802;28;20035;-46
2024/03/12 01:50:49;;;;;;;1.27;1.15;;;19.00;57.40;;;;;;5038800;28;21057;-46
2024/03/12 01:53:16;;;;;;;1.65;1.30;;;19.00;57.40;;;;;;5038476;28;20037;-48
2024/03/12 01:55:44;;;;;;;1.85;1.40;;;19.00;57.40;;;;;;5035453;28;20025;-55
2024/03/12 01:58:12;;;;;;;1.85;1.00;;;19.10;57.40;;;;;;5036016;28;20083;-51
2024/03/12 02:00:38;;;;;;;1.45;1.20;;;19.00;57.30;;;;;;5032233;28;20052;-51
2024/03/12 02:03:03;;;;;;;0.90;0.80;;;19.00;57.30;;;;;;5031469;28;20495;-49
2024/03/12 02:05:29;;;;;;;1.65;1.00;;;19.10;57.20;;;;;;5036695;28;20052;-50
2024/03/12 02:07:55;;;;;;;1.00;0.90;;;19.10;57.20;;;;;;5036326;28;20460;-52
2024/03/12 02:10:21;;;;;;;1.45;1.25;;;19.10;57.20;;;;;;5033593;28;20053;-51
2024/03/12 02:12:47;;;;;;;1.30;1.05;;;19.10;57.20;;;;;;5033636;28;20045;-49
2024/03/12 02:15:17;;;;;;;1.48;1.20;;;19.10;57.10;;;;;;5036402;28;20120;-49
2024/03/12 02:17:43;;;;;;;1.67;1.10;;;19.10;57.20;;;;;;5040440;28;20021;-49
2024/03/12 02:20:09;;;;;;;1.23;1.13;;;19.10;57.10;;;;;;5038795;28;20436;-48
2024/03/12 02:22:38;;;;;;;1.80;1.20;;;19.10;57.10;;;;;;5031432;28;20052;-49
2024/03/12 02:25:05;;;;;;;1.52;1.15;;;19.10;57.10;;;;;;5023506;28;20041;-49
2024/03/12 02:27:30;;;;;;;1.35;1.00;;;19.10;57.00;;;;;;5017750;28;20159;-48
2024/03/12 02:29:56;;;;;;;1.38;1.20;;;19.20;57.10;;;;;;5021123;28;20087;-49
2024/03/12 02:32:22;;;;;;;1.70;1.13;;;19.10;57.00;;;;;;5010874;28;20033;-48
2024/03/12 02:34:51;;;;;;;1.27;1.15;;;19.20;57.00;;;;;;5006014;28;20038;-48
2024/03/12 02:37:17;;;;;;;1.75;1.17;;;19.10;57.00;;;;;;5017721;28;20117;-51
2024/03/12 02:39:43;;;;;;;2.30;1.00;;;19.10;56.90;;;;;;5021041;28;20543;-51
2024/03/12 02:42:08;;;;;;;1.60;1.17;;;19.20;57.00;;;;;;5019074;28;20021;-50
2024/03/12 02:44:37;;;;;;;1.13;1.02;;;19.20;57.00;;;;;;5018077;28;20063;-49
2024/03/12 02:47:05;;;;;;;1.50;1.02;;;19.20;57.00;;;;;;5021688;28;20026;-50
2024/03/12 02:49:31;;;;;;;1.23;0.93;;;19.20;57.00;;;;;;5011252;28;20505;-51
2024/03/12 02:51:57;;;;;;;1.10;1.00;;;19.20;57.00;;;;;;5017115;28;20038;-54
2024/03/12 02:54:25;;;;;;;1.38;1.20;;;19.20;56.90;;;;;;5018858;28;20057;-53
2024/03/12 02:56:51;;;;;;;1.80;1.40;;;19.20;56.90;;;;;;5019554;28;20033;-54
2024/03/12 02:59:16;;;;;;;1.67;1.17;;;19.20;56.90;;;;;;5021177;28;20402;-50
2024/03/12 03:01:42;;;;;;;1.63;0.82;;;19.20;56.90;;;;;;5028095;28;20740;-51
2024/03/12 03:04:08;;;;;;;1.05;0.95;;;19.20;56.90;;;;;;5035602;28;20021;-51
2024/03/12 03:06:34;;;;;;;2.55;1.30;;;19.20;56.80;;;;;;5037278;28;20586;-54
2024/03/12 03:09:00;;;;;;;1.38;1.10;;;19.20;56.90;;;;;;5035911;28;20029;-50
2024/03/12 03:11:26;;;;;;;2.25;1.08;;;19.20;56.90;;;;;;5035485;28;20086;-50
2024/03/12 03:13:52;;;;;;;1.20;1.00;;;19.20;56.90;;;;;;5032100;28;20038;-50
2024/03/12 03:16:20;;;;;;;2.03;1.15;;;19.10;56.80;;;;;;5031582;28;21520;-50
2024/03/12 03:18:46;;;;;;;1.10;0.90;;;19.10;56.90;;;;;;5031431;28;20029;-49
2024/03/12 03:21:11;;;;;;;1.52;0.70;;;19.20;56.90;;;;;;5034773;28;20037;-51
2024/03/12 03:23:41;;;;;;;0.88;0.82;;;19.20;56.90;;;;;;5030920;28;20396;-51
2024/03/12 03:26:09;;;;;;;1.00;0.90;;;19.10;56.90;;;;;;5033022;28;20063;-51
2024/03/12 03:28:35;;;;;;;1.13;1.02;;;19.10;56.90;;;;;;5033743;28;20556;-49
2024/03/12 03:31:00;;;;;;;1.10;1.00;;;19.10;56.90;;;;;;5035741;28;20033;-51
2024/03/12 03:33:27;;;;;;;1.08;0.90;;;19.10;57.00;;;;;;5037767;28;20040;-49
2024/03/12 03:35:52;;;;;;;1.13;0.98;;;19.10;57.00;;;;;;5032492;28;20605;-50
2024/03/12 03:38:19;;;;;;;1.20;0.80;;;19.10;57.00;;;;;;5036321;28;20119;-51
2024/03/12 03:40:45;;;;;;;1.10;1.00;;;19.10;57.00;;;;;;5032954;28;20479;-49
2024/03/12 03:43:11;;;;;;;1.55;0.80;;;19.10;57.00;;;;;;5023703;28;20497;-50
2024/03/12 03:45:36;;;;;;;1.40;0.95;;;19.10;57.00;;;;;;5017353;28;20128;-50
2024/03/12 03:48:02;;;;;;;1.30;1.02;;;19.00;57.00;;;;;;5021949;28;20026;-52
2024/03/12 03:50:27;;;;;;;1.60;1.20;;;19.00;57.00;;;;;;5016253;28;20502;-50
2024/03/12 03:52:53;;;;;;;1.73;1.00;;;19.00;57.00;;;;;;5026876;28;20125;-49
2024/03/12 03:55:21;;;;;;;1.30;1.15;;;19.00;57.10;;;;;;5034486;28;20045;-51
2024/03/12 03:57:49;;;;;;;1.33;1.00;;;19.00;57.00;;;;;;5039083;28;20314;-49
2024/03/12 04:00:15;;;;;;;2.35;1.15;;;19.00;57.00;;;;;;5033585;28;20033;-51
2024/03/12 04:02:43;;;;;;;1.40;1.10;;;19.00;57.00;;;;;;5025756;28;20039;-50
2024/03/12 04:05:09;;;;;;;1.33;1.10;;;19.00;57.00;;;;;;5033858;28;20040;-51
2024/03/12 04:07:35;;;;;;;0.90;0.75;;;19.00;57.00;;;;;;5032955;28;20486;-50
2024/03/12 04:10:00;;;;;;;1.20;0.95;;;19.00;57.00;;;;;;5033818;28;20032;-51
2024/03/12 04:12:26;;;;;;;1.92;1.10;;;19.00;57.00;;;;;;5030912;28;21364;-50
2024/03/12 04:14:51;;;;;;;0.85;0.85;;;19.00;57.10;;;;;;5033302;28;20032;-51
2024/03/12 04:17:19;;;;;;;1.05;0.93;;;19.00;57.00;;;;;;5032258;28;20111;-50
2024/03/12 04:19:47;;;;;;;1.05;0.95;;;19.00;57.00;;;;;;5031337;28;20144;-51
2024/03/12 04:22:16;;;;;;;1.55;0.80;;;19.00;57.10;;;;;;5028766;28;20108;-50
2024/03/12 04:24:43;;;;;;;0.85;0.80;;;19.00;57.10;;;;;;5033387;28;20025;-51
2024/03/12 04:27:14;;;;;;;0.90;0.75;;;19.00;57.00;;;;;;5034150;28;20108;-51
2024/03/12 04:29:43;;;;;;;1.00;0.90;;;19.00;57.10;;;;;;5031677;28;20017;-50
2024/03/12 04:32:09;;;;;;;1.00;0.90;;;19.00;57.00;;;;;;5027146;28;20106;-52
2024/03/12 04:34:38;;;;;;;1.27;1.10;;;19.00;57.00;;;;;;5035434;28;20029;-49
2024/03/12 04:37:04;;;;;;;0.85;0.80;;;19.00;57.00;;;;;;5031969;28;20052;-52
2024/03/12 04:39:30;;;;;;;1.10;0.80;;;19.00;57.00;;;;;;5030196;28;20431;-49
2024/03/12 04:42:00;;;;;;;1.15;1.00;;;19.00;57.00;;;;;;5034141;28;20037;-50
2024/03/12 04:44:26;;;;;;;1.05;0.90;;;19.00;57.00;;;;;;5034163;28;20048;-49
2024/03/12 04:46:51;;;;;;;1.48;1.00;;;19.00;57.00;;;;;;5033757;28;20491;-49
2024/03/12 04:49:17;;;;;;;0.90;0.80;;;19.00;57.00;;;;;;5033840;28;20029;-53
2024/03/12 04:51:44;;;;;;;1.33;1.10;;;18.90;56.90;;;;;;5032909;28;20592;-48
2024/03/12 04:54:10;;;;;;;1.58;0.95;;;19.00;57.00;;;;;;5034239;28;20029;-50
2024/03/12 04:56:36;;;;;;;0.93;0.80;;;19.00;57.00;;;;;;5027762;28;20084;-48
2024/03/12 04:59:02;;;;;;;0.90;0.70;;;19.00;57.00;;;;;;5031716;28;20048;-51
2024/03/12 05:01:27;;;;;;;1.38;1.10;;;19.00;57.00;;;;;;5032288;28;20041;-48
2024/03/12 05:03:53;;;;;;;0.77;0.77;;;19.00;57.00;;;;;;5030085;28;20664;-49
2024/03/12 05:06:19;;;;;;;1.65;1.00;;;19.00;57.00;;;;;;5037460;28;20037;-50
2024/03/12 05:08:44;;;;;;;0.85;0.70;;;19.00;56.90;;;;;;5038295;28;20037;-51
2024/03/12 05:11:11;;;;;;;1.50;1.10;;;19.00;56.90;;;;;;5033305;28;20138;-50
2024/03/12 05:13:37;;;;;;;4.82;1.17;;;19.00;56.90;;;;;;5031361;28;20064;-50
2024/03/12 05:16:03;;;;;;;0.93;0.90;;;19.00;56.90;;;;;;5040373;28;20490;-51
2024/03/12 05:18:28;;;;;;;0.98;0.80;;;19.00;56.90;;;;;;5033598;28;20042;-50
2024/03/12 05:20:54;;;;;;;2.90;0.90;;;19.00;56.90;;;;;;5020553;28;20120;-50
2024/03/12 05:23:19;;;;;;;1.00;0.90;;;19.00;56.90;;;;;;5036626;28;20713;-51
2024/03/12 05:25:46;;;;;;;1.20;1.00;;;19.00;56.80;;;;;;5028200;28;20041;-51
2024/03/12 05:28:12;;;;;;;1.70;1.00;;;19.00;56.90;;;;;;5038822;28;20036;-50
2024/03/12 05:30:41;;;;;;;1.02;0.88;;;19.00;56.80;;;;;;5025359;28;20272;-50
2024/03/12 05:33:10;;;;;;;1.00;0.90;;;19.00;56.80;;;;;;5036335;28;20033;-49
2024/03/12 05:35:38;;;;;;;1.42;1.00;;;19.00;56.80;;;;;;5037015;28;20041;-50
2024/03/12 05:40:56;;;;;;;0.75;0.60;;;19.00;56.70;;;;;;5032835;28;20398;-49
2024/03/12 05:48:50;;;;;;;0.63;0.60;;;19.00;56.70;;;;;;5036033;28;20550;-47
2024/03/12 05:51:16;;;;;;;2.22;1.02;;;19.00;56.70;;;;;;5035365;28;20025;-51
2024/03/12 05:53:43;;;;;;;0.93;0.75;;;19.00;56.70;;;;;;5037068;28;20043;-49
2024/03/12 05:56:09;;;;;;;0.90;0.80;;;19.00;56.70;;;;;;5036566;28;20475;-50
2024/03/12 05:58:35;;;;;;;1.42;1.25;;;19.00;56.70;;;;;;5031415;28;20453;-51
2024/03/12 06:01:03;;;;;;;1.20;0.90;;;19.00;56.60;;;;;;5038625;28;20029;-48
2024/03/12 06:03:29;;;;;;;1.33;1.08;;;19.00;56.60;;;;;;5033285;28;20426;-50
2024/03/12 06:05:55;;;;;;;0.82;0.80;;;19.00;56.60;;;;;;5032828;28;20040;-51
2024/03/12 06:08:21;;;;;;;1.25;0.80;;;19.00;56.60;;;;;;5018300;28;20026;-49
2024/03/12 06:10:48;;;;;;;1.90;0.90;;;19.00;56.60;;;;;;5028715;28;20037;-47
2024/03/12 06:13:14;;;;;;;0.98;0.88;;;19.00;56.60;;;;;;5033358;28;20033;-52
2024/03/12 06:15:40;;;;;;;1.77;0.90;;;19.10;56.70;;;;;;5032935;28;20043;-49
2024/03/12 06:18:05;;;;;;;1.95;0.95;;;19.10;56.70;;;;;;5040109;28;20431;-48
2024/03/12 06:20:31;;;;;;;0.88;0.88;;;19.00;56.60;;;;;;5030632;28;20060;-51
2024/03/12 06:22:57;;;;;;;1.80;1.05;;;19.00;56.70;;;;;;5031789;28;20084;-51
2024/03/12 06:25:23;;;;;;;2.67;0.90;;;19.10;56.70;;;;;;5037587;28;20110;-50
2024/03/12 06:27:49;;;;;;;0.80;0.80;;;19.00;56.70;;;;;;5034723;28;20498;-50
2024/03/12 06:30:15;;;;;;;1.73;0.90;;;19.10;56.70;;;;;;5034780;28;20029;-50
2024/03/12 06:32:41;;;;;;;2.92;0.60;;;19.00;56.70;;;;;;5020676;28;20475;-49
2024/03/12 06:35:07;;;;;;;1.90;0.73;;;19.10;56.80;;;;;;5023791;28;20033;-50
2024/03/12 06:37:33;;;;;;;2.17;0.75;;;19.10;56.70;;;;;;5019623;28;20033;-52
2024/03/12 06:39:59;;;;;;;2.65;1.02;;;19.10;56.80;;;;;;5036049;28;20041;-49
2024/03/12 06:42:29;;;;;;;1.35;0.80;;;19.10;56.80;;;;;;5031811;28;20367;-49
2024/03/12 06:44:54;;;;;;;3.45;0.80;;;19.10;56.80;;;;;;5038957;28;20021;-48
2024/03/12 06:47:21;;;;;;;0.90;0.80;;;19.10;56.70;;;;;;5032334;28;20036;-47
2024/03/12 06:49:47;;;;;;;3.65;1.20;;;19.10;56.70;;;;;;5027662;28;20040;-47
2024/03/12 06:52:14;;;;;;;3.85;0.85;;;19.10;56.80;;;;;;5050044;28;20112;-51
2024/03/12 06:54:39;;;;;;;4.88;1.10;;;19.10;56.70;;;;;;5036959;28;20028;-50
2024/03/12 06:57:06;;;;;;;2.28;1.13;;;19.10;56.70;;;;;;5033031;28;20017;-49
2024/03/12 06:59:33;;;;;;;1.30;1.20;;;19.10;56.70;;;;;;5038647;28;20044;-49
2024/03/12 07:02:00;;;;;;;2.35;1.08;;;19.00;56.70;;;;;;5031619;28;20226;-47
2024/03/12 07:04:34;;;;;;;1.52;1.13;;;19.10;56.70;;;;;;5034041;28;20029;-49
2024/03/12 07:07:06;;;;;;;1.33;0.90;;;19.10;56.60;;;;;;5031581;28;20037;-49
2024/03/12 07:09:35;;;;;;;3.72;1.30;;;19.10;56.60;;;;;;5037548;28;20390;-58
2024/03/12 07:12:05;;;;;;;2.13;0.93;;;19.10;56.60;;;;;;5037926;28;20029;-49
2024/03/12 07:14:40;;;;;;;1.40;0.98;;;19.10;56.60;;;;;;5032425;28;20575;-50
2024/03/12 07:17:07;;;;;;;2.70;1.33;;;19.00;56.60;;;;;;5037416;28;20025;-49
2024/03/12 07:19:34;;;;;;;2.00;0.95;;;19.10;56.50;;;;;;5032688;28;20073;-47
2024/03/12 07:21:59;;;;;;;2.65;1.27;;;19.10;56.60;;;;;;5033509;28;20033;-50
2024/03/12 07:24:25;;;;;;;2.55;1.33;;;19.10;57.20;;;;;;5031344;28;20029;-48
2024/03/12 07:26:50;;;;;;;2.97;1.10;;;19.10;56.40;;;;;;5033012;28;20028;-48
2024/03/12 07:29:17;;;;;;;2.15;1.08;;;19.00;56.40;;;;;;5040097;28;20104;-51
2024/03/12 07:31:43;;;;;;;2.47;1.33;;;19.10;56.40;;;;;;5033968;28;20025;-48
2024/03/12 07:34:09;;;;;;;2.47;0.98;;;19.10;56.40;;;;;;5035436;28;20037;-47
2024/03/12 07:36:35;;;;;;;2.60;1.08;;;19.00;56.20;;;;;;5034055;28;20033;-50
2024/03/12 07:39:08;;;;;;;3.70;1.13;;;19.00;56.40;;;;;;5038033;28;20056;-49
2024/03/12 07:41:35;;;;;;;2.58;1.00;;;19.00;56.50;;;;;;5025316;28;20063;-49
2024/03/12 07:44:01;;;;;;;3.05;1.30;;;19.00;56.70;;;;;;5030973;28;20029;-51
2024/03/12 07:46:28;;;;;;;3.95;1.45;;;19.00;56.60;;;;;;5028004;28;20034;-50
2024/03/12 07:48:54;;;;;;;2.50;1.38;;;18.90;57.20;;;;;;5039159;28;20033;-49
2024/03/12 07:51:19;;;;;;;3.83;1.35;;;18.90;56.60;;;;;;5035662;28;20462;-48
2024/03/12 07:53:46;;;;;;;3.90;1.60;;;18.90;56.60;;;;;;5035837;28;20038;-51
2024/03/12 07:56:14;;;;;;;5.15;1.27;;;18.90;56.70;;;;;;5032516;28;20041;-52
2024/03/12 07:58:40;;;;;;;5.20;1.40;;;18.90;56.80;;;;;;5029636;28;20025;-50
2024/03/12 08:01:06;;;;;;;3.88;1.95;;;18.90;56.60;;;;;;5028086;28;20537;-48
2024/03/12 08:03:32;;;;;;;3.13;1.30;;;18.80;56.80;;;;;;5031758;28;20057;-49
2024/03/12 08:05:59;;;;;;;1.92;1.30;;;18.80;56.90;;;;;;5035246;28;20032;-49
2024/03/12 08:08:25;;;;;;;1.65;1.13;;;18.80;56.90;;;;;;5029112;28;20562;-51
2024/03/12 08:10:51;;;;;;;4.47;1.20;;;18.80;56.90;;;;;;5030156;28;20103;-49
2024/03/12 08:13:17;;;;;;;8.85;1.45;;;18.80;56.90;;;;;;5033651;28;20493;-48
2024/03/12 08:15:44;;;;;;;3.47;1.40;;;18.80;57.00;;;;;;5030995;28;20041;-50
2024/03/12 08:18:10;;;;;;;2.40;1.30;;;18.80;57.00;;;;;;5030599;28;20571;-51
2024/03/12 08:20:36;;;;;;;2.55;1.42;;;18.80;57.00;;;;;;5029693;28;20029;-51
2024/03/12 08:23:04;;;;;;;2.88;1.60;;;18.80;57.00;;;;;;5033717;28;20044;-51
2024/03/12 08:25:31;;;;;;;3.92;1.30;;;18.80;57.00;;;;;;5030713;28;20041;-52
2024/03/12 08:27:56;;;;;;;3.05;1.23;;;18.80;57.00;;;;;;5035432;28;20129;-50
2024/03/12 08:30:22;;;;;;;4.68;2.15;;;18.80;56.90;;;;;;5034028;28;20172;-52
2024/03/12 08:32:47;;;;;;;2.60;1.40;;;18.80;56.90;;;;;;5034345;28;20039;-50
2024/03/12 08:35:13;;;;;;;2.10;1.48;;;18.80;56.90;;;;;;5029107;28;20462;-49
2024/03/12 08:37:38;;;;;;;1.88;1.17;;;18.80;56.80;;;;;;5036501;28;20060;-49
2024/03/12 08:40:07;;;;;;;2.05;1.20;;;18.80;56.90;;;;;;5034329;28;20065;-51
2024/03/12 08:42:32;;;;;;;1.48;1.23;;;18.80;56.90;;;;;;5034219;28;20099;-49
2024/03/12 08:44:58;;;;;;;1.92;1.05;;;18.80;56.90;;;;;;5030887;28;20033;-50
2024/03/12 08:47:24;;;;;;;2.70;1.10;;;18.80;56.90;;;;;;5032623;28;20163;-50
2024/03/12 08:49:50;;;;;;;3.80;1.60;;;18.80;57.00;;;;;;5030668;28;20045;-48
2024/03/12 08:52:15;;;;;;;2.40;1.10;;;18.80;56.90;;;;;;5028287;28;20037;-56
2024/03/12 08:54:41;;;;;;;2.47;1.45;;;18.90;56.90;;;;;;5033090;28;20025;-53
2024/03/12 08:57:07;;;;;;;4.57;1.60;;;18.80;56.90;;;;;;5031934;28;20029;-57
2024/03/12 08:59:33;;;;;;;3.28;1.50;;;18.80;56.90;;;;;;5033485;28;20426;-55
2024/03/12 09:01:59;;;;;;;2.35;1.00;;;18.80;56.90;;;;;;5027421;28;20025;-53
2024/03/12 09:04:27;;;;;;;3.30;1.50;;;18.80;57.60;;;;;;5031899;28;20550;-49
2024/03/12 09:06:53;;;;;;;4.13;1.27;;;18.80;56.90;;;;;;5033315;28;20138;-49
2024/03/12 09:09:19;;;;;;;2.92;1.70;;;18.80;56.90;;;;;;5022418;28;20021;-56
2024/03/12 09:11:46;;;;;;;2.08;1.30;;;18.80;56.90;;;;;;5030943;28;20037;-51
2024/03/12 09:14:11;;;;;;;3.05;1.30;;;18.80;56.90;;;;;;5023293;28;20029;-54
2024/03/12 09:16:37;;;;;;;1.92;1.30;;;18.80;56.90;;;;;;5030792;28;20719;-51
2024/03/12 09:19:04;;;;;;;2.03;1.42;;;18.90;56.90;;;;;;5033726;28;20043;-54
2024/03/12 09:21:32;;;;;;;1.85;1.20;;;18.90;56.90;;;;;;5036763;28;20079;-54
2024/03/12 09:23:58;;;;;;;4.30;1.73;;;18.90;56.80;;;;;;5032290;28;20159;-50
2024/03/12 09:26:24;;;;;;;2.10;1.30;;;18.90;56.70;;;;;;5031207;28;20463;-55
2024/03/12 09:28:49;;;;;;;2.88;1.80;;;19.00;56.80;;;;;;5021921;28;20557;-49
2024/03/12 09:31:15;;;;;;;3.72;1.48;;;19.00;56.70;;;;;;5023573;28;20037;-52
2024/03/12 09:33:40;;;;;;;2.60;1.52;;;19.00;56.70;;;;;;5021048;28;20119;-54
2024/03/12 09:36:06;;;;;;;3.80;1.88;;;19.00;56.60;;;;;;5032324;28;20411;-51
2024/03/12 09:38:33;;;;;;;3.53;1.48;;;19.00;56.60;;;;;;5015285;28;20116;-51
2024/03/12 09:41:03;;;;;;;2.03;1.48;;;19.00;56.50;;;;;;5023908;28;20037;-54
2024/03/12 09:43:32;;;;;;;2.58;1.80;;;19.10;56.50;;;;;;5033459;28;20037;-51
2024/03/12 09:46:00;;;;;;;3.75;1.65;;;19.10;56.50;;;;;;5025425;28;20037;-50
2024/03/12 09:48:26;;;;;;;5.55;1.88;;;19.20;56.40;;;;;;5022745;28;20102;-54
2024/03/12 09:50:52;;;;;;;3.58;1.63;;;19.20;56.30;;;;;;5029505;28;20049;-48
2024/03/12 09:53:19;;;;;;;2.78;1.38;;;19.20;56.30;;;;;;5030833;28;20147;-48
2024/03/12 09:55:45;;;;;;;3.28;1.58;;;19.20;56.30;;;;;;5030416;28;20486;-51
2024/03/12 09:58:11;;;;;;;4.70;1.40;;;19.20;56.30;;;;;;4996051;28;20045;-52
2024/03/12 10:00:37;;;;;;;2.13;1.50;;;19.20;56.20;;;;;;4984847;28;20582;-55
2024/03/12 10:03:03;;;;;;;1.67;1.30;;;19.20;56.30;;;;;;5047034;28;20111;-50
2024/03/12 10:05:29;;;;;;;3.10;1.40;;;19.20;56.90;;;;;;5020806;28;20048;-57
2024/03/12 10:08:04;;;;;;;2.63;1.70;;;19.20;56.40;;;;;;5000926;28;20045;-55
2024/03/12 10:10:32;;;;;;;3.33;1.38;;;19.20;56.50;;;;;;5024657;28;20029;-52
2024/03/12 10:12:58;;;;;;;2.65;1.58;;;19.10;56.50;;;;;;5033710;28;20037;-49
2024/03/12 10:15:24;;;;;;;2.88;1.52;;;19.10;56.50;;;;;;5035555;28;20718;-55
2024/03/12 10:17:59;;;;;;;2.80;1.35;;;19.10;56.60;;;;;;5033694;28;20025;-47
2024/03/12 10:20:30;;;;;;;2.40;1.58;;;19.00;56.70;;;;;;5036123;28;20475;-51
2024/03/12 10:23:09;;;;;;;2.47;1.63;;;19.00;56.80;;;;;;5019961;28;20042;-50
2024/03/12 10:25:37;;;;;;;4.45;1.35;;;19.00;56.90;;;;;;5019407;28;20026;-49
2024/03/12 10:28:07;;;;;;;2.65;1.60;;;18.90;56.90;;;;;;5043484;28;20033;-56
2024/03/12 10:30:33;;;;;;;2.17;1.55;;;18.90;57.00;;;;;;5036533;28;20033;-57
2024/03/12 10:33:12;;;;;;;2.47;1.38;;;18.90;57.10;;;;;;5036555;28;20048;-55
2024/03/12 10:35:38;;;;;;;3.42;1.80;;;18.90;57.10;;;;;;5040122;22;20045;-65
2024/03/12 10:38:06;;;;;;;2.80;1.63;;;18.90;57.10;;;;;;5037529;28;20053;-66
2024/03/12 10:40:32;;;;;;;2.95;1.60;;;18.80;57.20;;;;;;5035663;28;20027;-67
2024/03/12 10:42:58;;;;;;;2.70;1.90;;;18.80;57.20;;;;;;5020447;28;20021;-67
2024/03/12 10:45:28;;;;;;;3.45;1.40;;;18.80;57.20;;;;;;5036170;28;20506;-66
2024/03/12 10:47:56;;;;;;;3.22;1.45;;;18.80;57.20;;;;;;5042124;28;20063;-67
2024/03/12 10:50:23;;;;;;;1.50;1.30;;;18.80;57.20;;;;;;5043812;28;20143;-66
2024/03/12 10:52:54;;;;;;;5.35;1.88;;;18.80;57.20;;;;;;5041544;28;20041;-66
2024/03/12 10:55:23;;;;;;;3.05;1.67;;;18.80;57.20;;;;;;5040267;28;20034;-67
2024/03/12 10:57:54;;;;;;;3.25;1.60;;;18.80;57.20;;;;;;5041359;28;20063;-67
2024/03/12 11:00:21;;;;;;;1.83;1.27;;;18.80;57.20;;;;;;5036149;28;20073;-67
2024/03/12 11:02:50;;;;;;;2.40;1.63;;;18.80;57.20;;;;;;5032450;28;20033;-64
2024/03/12 11:05:20;;;;;;;2.65;1.38;;;18.80;57.20;;;;;;5044746;28;20025;-67
2024/03/12 11:07:46;;;;;;;1.27;1.00;;;18.80;57.20;;;;;;5035820;28;20441;-67
2024/03/12 11:10:13;;;;;;;2.75;1.42;;;18.80;57.20;;;;;;5041487;28;20052;-67
2024/03/12 11:12:39;;;;;;;2.53;1.40;;;18.80;57.10;;;;;;5033811;28;20171;-67
2024/03/12 11:15:09;;;;;;;1.83;1.42;;;18.80;57.10;;;;;;5042526;28;20033;-66
2024/03/12 11:17:37;;;;;;;1.92;1.45;;;18.80;57.10;;;;;;5018325;28;20477;-67
2024/03/12 11:20:05;;;;;;;2.53;1.27;;;18.90;57.10;;;;;;5037913;28;20514;-65
2024/03/12 11:22:34;;;;;;;3.40;1.40;;;18.90;57.00;;;;;;5038090;28;20399;-65
2024/03/12 11:25:04;;;;;;;3.22;1.30;;;18.90;56.90;;;;;;5043114;28;20120;-67
2024/03/12 11:27:29;;;;;;;1.98;1.40;;;18.90;56.90;;;;;;5037908;28;20387;-66
2024/03/12 11:30:03;;;;;;;1.92;1.38;;;18.90;56.90;;;;;;5040351;28;20025;-65
2024/03/12 11:32:38;;;;;;;2.13;1.08;;;19.00;56.90;;;;;;5027192;28;20053;-67
2024/03/12 11:35:27;;;;;;;2.75;1.25;;;19.00;56.80;;;;;;5026663;28;20037;-67
2024/03/12 11:37:56;;;;;;;1.65;1.10;;;19.00;56.70;;;;;;5039655;28;20060;-66
2024/03/12 11:40:48;;;;;;;1.67;0.93;;;19.10;56.70;;;;;;5038166;28;20448;-66
2024/03/12 11:43:37;;;;;;;3.22;1.48;;;19.10;56.60;;;;;;5041799;28;20104;-66
2024/03/12 11:46:04;;;;;;;2.00;1.45;;;19.20;56.60;;;;;;5033227;28;20029;-65
2024/03/12 11:48:45;;;;;;;3.08;1.40;;;19.20;56.50;;;;;;5034541;28;20101;-65
2024/03/12 11:51:11;;;;;;;1.80;1.17;;;19.20;56.40;;;;;;5033667;28;20033;-65
2024/03/12 11:53:38;;;;;;;2.28;1.50;;;19.20;56.30;;;;;;5043055;28;20471;-66
2024/03/12 11:56:10;;;;;;;1.75;1.20;;;19.30;56.20;;;;;;5026794;28;20040;-65
2024/03/12 11:58:44;;;;;;;1.73;1.05;;;19.30;56.10;;;;;;5027399;28;20603;-66
2024/03/12 12:01:14;;;;;;;1.20;0.77;;;19.40;56.10;;;;;;5030032;28;20512;-66
2024/03/12 12:03:40;;;;;;;1.70;1.10;;;19.40;56.00;;;;;;5027793;28;20084;-65
2024/03/12 12:06:09;;;;;;;2.08;1.27;;;19.40;56.00;;;;;;5038173;28;20061;-66
2024/03/12 12:08:38;;;;;;;1.50;0.90;;;19.50;56.00;;;;;;5033841;28;20135;-65
2024/03/12 12:11:09;;;;;;;1.70;1.20;;;19.50;55.90;;;;;;5030010;28;20036;-67
2024/03/12 12:13:35;;;;;;;2.72;1.15;;;19.50;55.90;;;;;;5036699;28;20419;-66
2024/03/12 12:16:02;;;;;;;1.40;1.10;;;19.50;55.90;;;;;;5034939;28;20093;-65
2024/03/12 12:18:30;;;;;;;1.80;1.40;;;19.50;55.90;;;;;;5041910;28;20119;-67
2024/03/12 12:21:01;;;;;;;1.05;0.85;;;19.60;55.90;;;;;;5037168;28;20064;-67
2024/03/12 12:23:27;;;;;;;2.20;1.23;;;19.60;55.80;;;;;;5037840;28;20040;-66
2024/03/12 12:25:54;;;;;;;1.45;1.00;;;19.60;55.80;;;;;;5032442;28;20034;-66
2024/03/12 12:28:22;;;;;;;1.88;1.08;;;19.60;55.70;;;;;;5041805;28;20059;-66
2024/03/12 12:30:49;;;;;;;2.38;1.10;;;19.70;55.80;;;;;;5034533;28;20057;-66
2024/03/12 12:33:16;;;;;;;1.92;1.25;;;19.70;55.70;;;;;;5039861;28;20112;-67
2024/03/12 12:35:42;;;;;;;1.55;1.05;;;19.70;55.70;;;;;;5034346;28;20036;-64
2024/03/12 12:38:10;;;;;;;2.15;1.08;;;19.60;55.70;;;;;;5041931;28;20369;-67
2024/03/12 12:40:37;;;;;;;1.10;0.80;;;19.70;55.70;;;;;;5039865;28;20044;-67
2024/03/12 12:43:06;;;;;;;1.15;0.90;;;19.70;55.70;;;;;;5040718;28;20514;-66
2024/03/12 12:45:34;;;;;;;1.50;0.80;;;19.70;55.70;;;;;;5027382;28;20124;-66
2024/03/12 12:48:01;;;;;;;2.47;1.35;;;19.70;55.70;;;;;;5037448;28;20087;-67
2024/03/12 12:50:30;;;;;;;1.48;1.10;;;19.70;55.70;;;;;;5037592;28;20036;-66
2024/03/12 12:53:00;;;;;;;1.85;1.10;;;19.70;55.80;;;;;;5032742;28;20041;-66
2024/03/12 12:55:26;;;;;;;1.67;0.90;;;19.70;55.80;;;;;;5035119;28;20112;-67